createdAt,value
2018-06-13T00:00:09.890Z,6.40
2018-06-13T00:02:38.203Z,6.60
2018-06-13T00:05:07.701Z,7.10
2018-06-13T00:07:35.997Z,7.70
2018-06-13T00:10:04.367Z,6.47
2018-06-13T00:12:32.653Z,6.60
2018-06-13T00:15:02.985Z,7.30
2018-06-13T00:17:31.269Z,7.50
2018-06-13T00:19:59.585Z,5.63
2018-06-13T00:22:28.991Z,7.23
2018-06-13T00:24:57.325Z,6.40
2018-06-13T00:27:25.689Z,6.37
2018-06-13T00:29:54.052Z,6.37
2018-06-13T00:32:22.349Z,6.70
2018-06-13T00:34:50.710Z,6.70
2018-06-13T00:37:19.031Z,6.20
2018-06-13T00:39:47.409Z,6.73
2018-06-13T00:42:15.746Z,7.53
2018-06-13T00:44:44.121Z,6.60
2018-06-13T00:47:12.461Z,6.33
2018-06-13T00:49:40.853Z,6.90
2018-06-13T00:52:09.155Z,7.93
2018-06-13T00:54:37.440Z,7.07
2018-06-13T00:57:05.757Z,7.10
2018-06-13T00:59:34.076Z,6.97
2018-06-13T01:02:05.517Z,6.90
2018-06-13T01:04:33.862Z,7.20
2018-06-13T01:07:02.214Z,6.60
2018-06-13T01:09:30.521Z,7.40
2018-06-13T01:11:58.942Z,6.87
2018-06-13T01:14:27.278Z,6.13
2018-06-13T01:16:55.990Z,6.20
2018-06-13T01:19:24.296Z,7.43
2018-06-13T01:21:53.705Z,6.47
2018-06-13T01:24:22.020Z,6.43
2018-06-13T01:26:50.373Z,6.37
2018-06-13T01:29:18.666Z,6.20
2018-06-13T01:31:47.014Z,10.33
2018-06-13T01:34:16.777Z,7.27
2018-06-13T01:36:45.070Z,5.87
2018-06-13T01:39:13.377Z,5.60
2018-06-13T01:41:41.773Z,6.20
2018-06-13T01:44:10.085Z,5.13
2018-06-13T01:46:38.363Z,6.33
2018-06-13T01:49:06.707Z,4.90
2018-06-13T01:51:34.957Z,5.43
2018-06-13T01:54:03.278Z,4.20
2018-06-13T01:56:31.565Z,5.57
2018-06-13T01:58:59.901Z,5.37
2018-06-13T02:01:28.204Z,5.30
2018-06-13T02:03:56.546Z,5.60
2018-06-13T02:06:24.849Z,6.73
2018-06-13T02:08:53.173Z,5.30
2018-06-13T02:11:21.514Z,5.27
2018-06-13T02:13:49.873Z,5.43
2018-06-13T02:16:19.286Z,4.70
2018-06-13T02:18:47.601Z,4.80
2018-06-13T02:21:15.922Z,4.87
2018-06-13T02:23:45.205Z,4.83
2018-06-13T02:26:14.651Z,4.80
2018-06-13T02:28:42.951Z,4.27
2018-06-13T02:31:11.290Z,4.70
2018-06-13T02:33:39.587Z,4.70
2018-06-13T02:36:10.047Z,5.27
2018-06-13T02:38:38.342Z,4.90
2018-06-13T02:41:06.713Z,5.13
2018-06-13T02:43:35.037Z,4.00
2018-06-13T02:46:03.359Z,3.80
2018-06-13T02:48:31.641Z,3.63
2018-06-13T02:51:01.141Z,3.30
2018-06-13T02:53:29.417Z,4.47
2018-06-13T02:55:57.753Z,3.50
2018-06-13T02:58:26.111Z,4.20
2018-06-13T03:00:54.384Z,3.80
2018-06-13T03:03:22.712Z,3.90
2018-06-13T03:05:50.998Z,4.13
2018-06-13T03:08:19.314Z,3.33
2018-06-13T03:10:47.617Z,3.40
2018-06-13T03:13:15.958Z,4.47
2018-06-13T03:15:44.233Z,3.27
2018-06-13T03:18:12.593Z,3.50
2018-06-13T03:20:40.885Z,3.10
2018-06-13T03:23:09.217Z,3.80
2018-06-13T03:25:38.577Z,3.20
2018-06-13T03:28:06.982Z,3.40
2018-06-13T03:30:35.268Z,3.80
2018-06-13T03:33:03.601Z,3.50
2018-06-13T03:35:31.898Z,3.60
2018-06-13T03:38:00.214Z,3.70
2018-06-13T03:40:29.557Z,4.10
2018-06-13T03:42:57.885Z,3.50
2018-06-13T03:45:26.166Z,4.70
2018-06-13T03:47:54.465Z,3.17
2018-06-13T03:50:22.779Z,3.60
2018-06-13T03:52:51.094Z,3.37
2018-06-13T03:55:19.412Z,4.40
2018-06-13T03:57:47.701Z,3.43
2018-06-13T04:00:16.025Z,3.17
2018-06-13T04:02:45.386Z,4.53
2018-06-13T04:05:13.704Z,3.17
2018-06-13T04:07:42.006Z,3.10
2018-06-13T04:10:10.321Z,3.13
2018-06-13T04:12:38.625Z,3.23
2018-06-13T04:15:06.957Z,3.67
2018-06-13T04:17:35.292Z,3.33
2018-06-13T04:20:03.696Z,3.63
2018-06-13T04:22:31.973Z,4.20
2018-06-13T04:25:00.289Z,3.30
2018-06-13T04:27:28.693Z,3.90
2018-06-13T04:29:56.994Z,3.23
2018-06-13T04:32:25.313Z,3.40
2018-06-13T04:34:53.589Z,3.80
2018-06-13T04:37:21.933Z,3.50
2018-06-13T04:39:50.244Z,3.70
2018-06-13T04:42:18.575Z,3.30
2018-06-13T04:44:46.854Z,3.17
2018-06-13T04:47:15.174Z,2.33
2018-06-13T04:49:43.448Z,3.10
2018-06-13T04:52:12.857Z,3.20
2018-06-13T04:54:41.158Z,2.60
2018-06-13T04:57:11.626Z,3.00
2018-06-13T04:59:39.889Z,2.93
2018-06-13T05:02:08.169Z,2.40
2018-06-13T05:04:36.428Z,3.07
2018-06-13T05:07:04.700Z,3.43
2018-06-13T05:09:32.985Z,2.70
2018-06-13T05:12:01.273Z,2.87
2018-06-13T05:14:29.525Z,2.53
2018-06-13T05:16:57.821Z,3.10
2018-06-13T05:19:26.077Z,2.60
2018-06-13T05:21:54.325Z,3.37
2018-06-13T05:24:22.613Z,2.30
2018-06-13T05:26:50.901Z,2.50
2018-06-13T05:29:19.185Z,3.00
2018-06-13T05:31:47.461Z,2.50
2018-06-13T05:34:15.749Z,2.47
2018-06-13T05:36:44.001Z,2.47
2018-06-13T05:39:12.289Z,4.60
2018-06-13T05:41:40.797Z,2.30
2018-06-13T05:44:09.100Z,2.92
2018-06-13T05:46:37.541Z,3.10
2018-06-13T05:49:05.829Z,1.80
2018-06-13T05:51:34.121Z,3.00
2018-06-13T05:54:02.412Z,2.53
2018-06-13T05:56:30.670Z,2.30
2018-06-13T05:58:58.943Z,2.03
2018-06-13T06:01:27.243Z,2.50
2018-06-13T06:03:55.496Z,2.83
2018-06-13T06:06:24.798Z,2.70
2018-06-13T06:08:53.069Z,2.30
2018-06-13T06:11:21.402Z,1.40
2018-06-13T06:13:49.671Z,1.90
2018-06-13T06:16:17.945Z,2.17
2018-06-13T06:18:46.252Z,3.10
2018-06-13T06:21:14.534Z,1.80
2018-06-13T06:23:42.829Z,2.37
2018-06-13T06:26:11.122Z,2.20
2018-06-13T06:28:39.396Z,2.70
2018-06-13T06:31:07.748Z,2.13
2018-06-13T06:33:36.041Z,2.40
2018-06-13T06:36:05.347Z,1.90
2018-06-13T06:38:33.599Z,2.10
2018-06-13T06:41:02.918Z,2.80
2018-06-13T06:43:31.226Z,2.60
2018-06-13T06:45:59.509Z,2.50
2018-06-13T06:48:27.778Z,2.20
2018-06-13T06:50:56.077Z,3.17
2018-06-13T06:53:24.491Z,1.90
2018-06-13T06:55:52.791Z,2.33
2018-06-13T06:58:21.157Z,1.90
2018-06-13T07:00:49.442Z,2.00
2018-06-13T07:03:17.770Z,2.90
2018-06-13T07:05:46.041Z,2.40
2018-06-13T07:08:14.358Z,2.10
2018-06-13T07:10:42.645Z,2.63
2018-06-13T07:13:14.678Z,2.10
2018-06-13T07:15:44.005Z,2.50
2018-06-13T07:18:12.333Z,2.90
2018-06-13T07:20:41.656Z,2.80
2018-06-13T07:23:11.101Z,4.20
2018-06-13T07:25:39.365Z,2.63
2018-06-13T07:28:07.688Z,2.63
2018-06-13T07:30:37.023Z,3.90
2018-06-13T07:33:07.365Z,3.00
2018-06-13T07:35:35.631Z,2.00
2018-06-13T07:38:03.965Z,3.23
2018-06-13T07:40:32.213Z,3.70
2018-06-13T07:43:00.517Z,4.77
2018-06-13T07:45:28.797Z,3.67
2018-06-13T07:47:57.088Z,4.27
2018-06-13T07:50:25.334Z,5.50
2018-06-13T07:52:54.149Z,5.10
2018-06-13T07:55:23.478Z,3.73
2018-06-13T07:57:51.710Z,2.87
2018-06-13T08:00:20.039Z,2.73
2018-06-13T08:02:48.309Z,2.20
2018-06-13T08:05:16.574Z,2.60
2018-06-13T08:07:45.153Z,2.47
2018-06-13T08:10:13.409Z,1.90
2018-06-13T08:12:41.657Z,2.20
2018-06-13T08:15:09.946Z,2.17
2018-06-13T08:17:38.225Z,2.33
2018-06-13T08:20:08.600Z,1.50
2018-06-13T08:22:36.853Z,2.23
2018-06-13T08:25:05.129Z,1.53
2018-06-13T08:27:33.402Z,1.67
2018-06-13T08:30:01.686Z,1.40
2018-06-13T08:32:29.946Z,2.07
2018-06-13T08:34:58.237Z,1.67
2018-06-13T08:37:26.510Z,1.40
2018-06-13T08:39:54.765Z,2.63
2018-06-13T08:42:26.473Z,2.43
2018-06-13T08:44:58.412Z,2.17
2018-06-13T08:47:26.685Z,1.90
2018-06-13T08:49:55.925Z,1.30
2018-06-13T08:52:24.201Z,2.47
2018-06-13T08:54:52.448Z,2.70
2018-06-13T08:57:20.733Z,2.63
2018-06-13T08:59:49.984Z,2.13
2018-06-13T09:02:18.271Z,2.13
2018-06-13T09:04:46.517Z,2.50
2018-06-13T09:07:14.789Z,2.87
2018-06-13T09:09:43.038Z,2.70
2018-06-13T09:12:12.416Z,1.60
2018-06-13T09:14:40.657Z,1.80
2018-06-13T09:17:08.927Z,2.50
2018-06-13T09:19:37.216Z,1.70
2018-06-13T09:22:05.481Z,2.00
2018-06-13T09:24:33.728Z,2.90
2018-06-13T09:27:02.057Z,3.00
2018-06-13T09:29:30.438Z,4.97
2018-06-13T09:31:58.691Z,3.10
2018-06-13T09:34:26.995Z,1.47
2018-06-13T09:36:55.233Z,2.13
2018-06-13T09:39:23.654Z,1.50
2018-06-13T09:41:57.101Z,1.40
2018-06-13T09:44:25.377Z,2.37
2018-06-13T09:46:54.705Z,1.93
2018-06-13T09:49:23.002Z,2.67
2018-06-13T09:51:51.249Z,2.40
2018-06-13T09:54:19.565Z,1.33
2018-06-13T09:56:47.964Z,1.80
2018-06-13T09:59:20.145Z,2.53
2018-06-13T10:01:53.336Z,2.10
2018-06-13T10:04:22.255Z,1.60
2018-06-13T10:06:50.569Z,1.50
2018-06-13T10:09:18.868Z,1.60
2018-06-13T10:11:47.194Z,1.23
2018-06-13T10:14:15.757Z,1.70
2018-06-13T10:16:45.082Z,1.90
2018-06-13T10:19:14.382Z,2.30
2018-06-13T10:21:43.460Z,2.10
2018-06-13T10:24:11.757Z,1.70
2018-06-13T10:26:40.130Z,2.10
2018-06-13T10:29:08.464Z,2.67
2018-06-13T10:31:36.910Z,3.07
2018-06-13T10:34:05.370Z,2.33
2018-06-13T10:36:33.695Z,1.50
2018-06-13T10:39:02.041Z,1.70
2018-06-13T10:41:30.310Z,2.00
2018-06-13T10:43:58.573Z,1.97
2018-06-13T10:46:26.868Z,1.67
2018-06-13T10:48:55.121Z,2.40
2018-06-13T10:51:23.422Z,2.57
2018-06-13T10:53:51.722Z,2.23
2018-06-13T10:56:20.070Z,2.70
2018-06-13T10:58:48.431Z,2.90
2018-06-13T11:01:16.717Z,2.10
2018-06-13T11:03:44.981Z,4.27
2018-06-13T11:06:13.249Z,2.77
2018-06-13T11:08:41.547Z,2.60
2018-06-13T11:11:09.811Z,2.60
2018-06-13T11:13:38.208Z,2.80
2018-06-13T11:16:06.531Z,2.20
2018-06-13T11:18:34.960Z,2.47
2018-06-13T11:21:03.213Z,1.90
2018-06-13T11:23:31.539Z,2.60
2018-06-13T11:25:59.889Z,2.47
2018-06-13T11:28:28.185Z,2.23
2018-06-13T11:30:56.430Z,1.87
2018-06-13T11:33:25.771Z,3.10
2018-06-13T11:35:54.032Z,1.60
2018-06-13T11:38:22.333Z,1.43
2018-06-13T11:40:50.586Z,3.27
2018-06-13T11:43:18.981Z,2.80
2018-06-13T11:45:47.254Z,2.17
2018-06-13T11:48:15.539Z,2.70
2018-06-13T11:50:43.813Z,2.67
2018-06-13T11:53:12.057Z,5.53
2018-06-13T11:55:40.359Z,3.80
2018-06-13T11:58:08.613Z,2.70
2018-06-13T12:00:36.905Z,2.57
2018-06-13T12:03:05.170Z,2.87
2018-06-13T12:05:33.449Z,2.70
2018-06-13T12:08:01.701Z,2.80
2018-06-13T12:10:29.982Z,2.20
2018-06-13T12:12:58.281Z,2.27
2018-06-13T12:15:26.605Z,2.40
2018-06-13T12:17:54.887Z,2.30
2018-06-13T12:20:23.158Z,2.57
2018-06-13T12:22:51.561Z,2.73
2018-06-13T12:25:19.977Z,2.03
2018-06-13T12:27:48.317Z,2.77
2018-06-13T12:30:16.569Z,2.53
2018-06-13T12:32:44.873Z,3.23
2018-06-13T12:35:13.120Z,2.10
2018-06-13T12:37:41.397Z,1.50
2018-06-13T12:40:09.668Z,2.97
2018-06-13T12:42:37.998Z,2.20
2018-06-13T12:45:06.266Z,1.90
2018-06-13T12:47:34.553Z,2.30
2018-06-13T12:50:03.051Z,1.80
2018-06-13T12:52:31.402Z,2.17
2018-06-13T12:54:59.799Z,2.03
2018-06-13T12:57:28.169Z,1.90
2018-06-13T12:59:57.456Z,2.30
2018-06-13T13:02:26.301Z,2.30
2018-06-13T13:04:54.549Z,2.30
2018-06-13T13:07:22.901Z,3.10
2018-06-13T13:09:51.205Z,2.95
2018-06-13T13:12:20.676Z,2.57
2018-06-13T13:14:48.969Z,2.00
2018-06-13T13:17:17.413Z,2.33
2018-06-13T13:19:45.730Z,2.50
2018-06-13T13:22:14.069Z,2.20
2018-06-13T13:24:42.377Z,2.10
2018-06-13T13:27:10.729Z,2.00
2018-06-13T13:29:39.028Z,2.00
2018-06-13T13:32:07.469Z,1.83
2018-06-13T13:34:35.788Z,2.40
2018-06-13T13:37:04.130Z,1.80
2018-06-13T13:39:32.539Z,2.27
2018-06-13T13:42:00.815Z,2.70
2018-06-13T13:44:29.053Z,2.57
2018-06-13T13:46:58.312Z,3.03
2018-06-13T13:49:26.737Z,2.63
2018-06-13T13:51:55.163Z,3.60
2018-06-13T13:54:23.489Z,2.37
2018-06-13T13:56:51.797Z,3.13
2018-06-13T13:59:20.055Z,2.50
2018-06-13T14:01:48.359Z,2.47
2018-06-13T14:04:16.603Z,1.73
2018-06-13T14:06:44.915Z,2.10
2018-06-13T14:09:13.259Z,2.37
2018-06-13T14:11:41.721Z,1.87
2018-06-13T14:14:09.997Z,2.27
2018-06-13T14:16:38.301Z,2.17
2018-06-13T14:19:06.561Z,1.90
2018-06-13T14:21:34.861Z,2.57
2018-06-13T14:24:03.100Z,1.40
2018-06-13T14:26:31.434Z,1.83
2018-06-13T14:28:59.773Z,2.30
2018-06-13T14:31:28.077Z,2.10
2018-06-13T14:33:56.457Z,2.77
2018-06-13T14:36:24.818Z,2.27
2018-06-13T14:38:53.113Z,2.30
2018-06-13T14:41:21.628Z,1.63
2018-06-13T14:43:50.221Z,1.53
2018-06-13T14:46:18.768Z,2.00
2018-06-13T14:48:47.064Z,2.90
2018-06-13T14:51:15.385Z,1.90
2018-06-13T14:53:43.661Z,2.37
2018-06-13T14:56:18.147Z,2.00
2018-06-13T14:58:46.485Z,2.40
2018-06-13T15:01:14.746Z,2.30
2018-06-13T15:03:43.037Z,2.50
2018-06-13T15:06:11.748Z,2.07
2018-06-13T15:08:40.024Z,1.90
2018-06-13T15:11:09.390Z,2.27
2018-06-13T15:13:37.664Z,1.93
2018-06-13T15:16:05.925Z,2.20
2018-06-13T15:18:34.238Z,1.70
2018-06-13T15:21:02.526Z,1.90
2018-06-13T15:23:30.801Z,1.50
2018-06-13T15:25:59.110Z,3.63
2018-06-13T15:28:27.411Z,2.40
2018-06-13T15:30:55.685Z,2.20
2018-06-13T15:33:24.305Z,1.90
2018-06-13T15:35:52.605Z,2.10
2018-06-13T15:38:20.869Z,2.87
2018-06-13T15:40:49.133Z,1.67
2018-06-13T15:43:17.369Z,1.80
2018-06-13T15:45:46.569Z,2.10
2018-06-13T15:48:14.820Z,2.23
2018-06-13T15:50:43.113Z,2.40
2018-06-13T15:53:11.356Z,1.90
2018-06-13T15:55:39.704Z,2.80
2018-06-13T15:58:07.993Z,2.10
2018-06-13T16:00:36.317Z,1.50
2018-06-13T16:03:05.925Z,1.97
2018-06-13T16:05:34.947Z,1.80
2018-06-13T16:08:03.237Z,2.17
2018-06-13T16:10:31.723Z,1.67
2018-06-13T16:12:59.990Z,2.00
2018-06-13T16:15:28.343Z,1.80
2018-06-13T16:17:56.627Z,2.40
2018-06-13T16:20:24.881Z,1.80
2018-06-13T16:22:53.160Z,2.00
2018-06-13T16:25:21.453Z,2.40
2018-06-13T16:27:49.759Z,2.07
2018-06-13T16:30:18.018Z,2.40
2018-06-13T16:32:46.306Z,2.50
2018-06-13T16:35:14.544Z,2.87
2018-06-13T16:37:42.843Z,2.67
2018-06-13T16:40:11.097Z,1.70
2018-06-13T16:42:39.401Z,1.90
2018-06-13T16:45:07.669Z,1.73
2018-06-13T16:47:35.975Z,1.83
2018-06-13T16:50:14.245Z,2.23
2018-06-13T16:52:54.201Z,2.47
2018-06-13T16:55:24.057Z,2.50
2018-06-13T16:57:52.632Z,2.30
2018-06-13T17:00:21.845Z,2.20
2018-06-13T17:02:50.715Z,1.90
2018-06-13T17:05:19.001Z,2.00
2018-06-13T17:07:47.775Z,2.20
2018-06-13T17:10:16.084Z,2.13
2018-06-13T17:12:44.336Z,1.97
2018-06-13T17:15:12.633Z,1.93
2018-06-13T17:17:40.869Z,2.10
2018-06-13T17:20:09.153Z,2.30
2018-06-13T17:22:44.036Z,3.30
2018-06-13T17:25:12.318Z,2.10
2018-06-13T17:27:40.607Z,2.80
2018-06-13T17:30:08.929Z,2.93
2018-06-13T17:32:37.189Z,2.47
2018-06-13T17:35:05.528Z,2.57
2018-06-13T17:37:33.777Z,1.90
2018-06-13T17:40:02.062Z,3.00
2018-06-13T17:42:30.307Z,2.40
2018-06-13T17:44:58.622Z,1.90
2018-06-13T17:47:26.883Z,2.87
2018-06-13T17:49:55.192Z,2.63
2018-06-13T17:52:23.473Z,2.33
2018-06-13T17:54:51.723Z,2.40
2018-06-13T17:57:20.025Z,2.83
2018-06-13T17:59:48.283Z,3.30
2018-06-13T18:02:16.570Z,2.97
2018-06-13T18:04:44.813Z,3.30
2018-06-13T18:07:13.137Z,2.27
2018-06-13T18:09:41.379Z,3.00
2018-06-13T18:12:09.657Z,2.40
2018-06-13T18:14:37.904Z,2.53
2018-06-13T18:17:06.244Z,2.70
2018-06-13T18:19:34.497Z,2.37
2018-06-13T18:22:02.780Z,2.30
2018-06-13T18:24:31.043Z,1.97
2018-06-13T18:26:59.379Z,1.50
2018-06-13T18:29:27.936Z,1.93
2018-06-13T18:31:56.201Z,2.00
2018-06-13T18:34:24.449Z,1.63
2018-06-13T18:36:52.881Z,1.23
2018-06-13T18:39:21.413Z,2.10
2018-06-13T18:41:49.667Z,2.03
2018-06-13T18:44:17.968Z,1.67
2018-06-13T18:46:46.251Z,2.03
2018-06-13T18:49:14.545Z,1.53
2018-06-13T18:51:42.815Z,1.60
2018-06-13T18:54:11.090Z,2.67
2018-06-13T18:56:39.345Z,1.50
2018-06-13T18:59:07.618Z,2.70
2018-06-13T19:01:35.857Z,2.10
2018-06-13T19:04:04.208Z,1.93
2018-06-13T19:06:32.423Z,1.70
2018-06-13T19:09:00.780Z,1.93
2018-06-13T19:11:29.116Z,1.20
2018-06-13T19:13:57.772Z,1.43
2018-06-13T19:16:26.160Z,2.70
2018-06-13T19:18:54.474Z,1.70
2018-06-13T19:21:23.772Z,2.20
2018-06-13T19:23:52.077Z,1.73
2018-06-13T19:26:20.542Z,1.40
2018-06-13T19:28:48.837Z,2.07
2018-06-13T19:31:17.301Z,2.40
2018-06-13T19:33:45.577Z,1.87
2018-06-13T19:36:13.937Z,1.73
2018-06-13T19:38:42.193Z,1.80
2018-06-13T19:41:10.461Z,1.87
2018-06-13T19:43:39.301Z,2.10
2018-06-13T19:46:08.013Z,1.93
2018-06-13T19:48:41.501Z,1.97
2018-06-13T19:51:09.765Z,1.87
2018-06-13T19:53:43.267Z,1.90
2018-06-13T19:56:12.495Z,1.50
2018-06-13T19:58:40.841Z,1.80
2018-06-13T20:01:09.165Z,2.13
2018-06-13T20:03:42.753Z,1.97
2018-06-13T20:06:11.553Z,2.17
2018-06-13T20:08:39.805Z,1.70
2018-06-13T20:11:08.147Z,1.53
2018-06-13T20:13:41.705Z,2.30
2018-06-13T20:16:15.354Z,2.33
2018-06-13T20:18:49.070Z,1.90
2018-06-13T20:21:17.417Z,2.60
2018-06-13T20:23:45.685Z,2.70
2018-06-13T20:26:19.249Z,2.10
2018-06-13T20:28:52.897Z,2.20
2018-06-13T20:31:25.358Z,2.37
2018-06-13T20:33:53.669Z,2.10
2018-06-13T20:36:21.936Z,2.80
2018-06-13T20:38:50.338Z,1.97
2018-06-13T20:41:18.596Z,2.03
2018-06-13T20:43:46.872Z,1.90
2018-06-13T20:46:15.134Z,1.87
2018-06-13T20:48:43.678Z,2.30
2018-06-13T20:51:12.053Z,2.20
2018-06-13T20:53:40.388Z,2.67
2018-06-13T20:56:08.689Z,2.80
2018-06-13T20:58:36.957Z,2.53
2018-06-13T21:01:05.542Z,2.70
2018-06-13T21:03:33.789Z,3.07
2018-06-13T21:06:02.065Z,2.50
2018-06-13T21:08:30.313Z,2.57
2018-06-13T21:10:58.587Z,2.37
2018-06-13T21:13:26.845Z,3.00
2018-06-13T21:15:55.140Z,2.37
2018-06-13T21:18:23.397Z,2.20
2018-06-13T21:20:51.682Z,3.47
2018-06-13T21:23:19.933Z,2.50
2018-06-13T21:25:48.217Z,2.70
2018-06-13T21:28:16.504Z,2.60
2018-06-13T21:30:44.769Z,2.10
2018-06-13T21:33:13.081Z,3.33
2018-06-13T21:35:41.453Z,3.03
2018-06-13T21:38:09.914Z,1.90
2018-06-13T21:40:38.359Z,2.20
2018-06-13T21:43:06.715Z,2.30
2018-06-13T21:45:35.109Z,1.97
2018-06-13T21:48:03.374Z,1.97
2018-06-13T21:50:31.615Z,2.50
2018-06-13T21:52:59.877Z,3.83
2018-06-13T21:55:28.158Z,2.00
2018-06-13T21:57:56.464Z,2.70
2018-06-13T22:00:25.621Z,2.70
2018-06-13T22:02:53.957Z,2.00
2018-06-13T22:05:22.210Z,1.90
2018-06-13T22:07:50.493Z,1.80
2018-06-13T22:10:18.758Z,2.30
2018-06-13T22:12:47.237Z,3.13
2018-06-13T22:15:20.629Z,2.50
2018-06-13T22:17:48.925Z,2.50
2018-06-13T22:20:17.187Z,2.33
2018-06-13T22:22:45.446Z,2.43
2018-06-13T22:25:13.722Z,2.23
2018-06-13T22:27:42.037Z,2.33
2018-06-13T22:30:10.379Z,2.40
2018-06-13T22:32:38.597Z,2.70
2018-06-13T22:35:06.926Z,2.03
2018-06-13T22:37:35.546Z,2.40
2018-06-13T22:40:03.940Z,3.10
2018-06-13T22:42:32.409Z,3.00
2018-06-13T22:45:00.686Z,2.50
2018-06-13T22:47:28.941Z,2.40
2018-06-13T22:49:57.257Z,2.07
2018-06-13T22:52:25.721Z,2.80
2018-06-13T22:54:54.249Z,2.70
2018-06-13T22:57:22.538Z,3.37
2018-06-13T22:59:50.797Z,2.17
2018-06-13T23:02:19.090Z,2.70
2018-06-13T23:04:47.383Z,2.53
2018-06-13T23:07:15.677Z,3.30
2018-06-13T23:09:43.945Z,2.90
2018-06-13T23:12:12.307Z,2.70
2018-06-13T23:14:40.555Z,3.10
2018-06-13T23:17:09.072Z,2.50
2018-06-13T23:31:00.678Z,3.37
2018-06-13T23:33:28.985Z,3.60
2018-06-13T23:35:57.268Z,2.80
2018-06-13T23:38:25.561Z,3.10
2018-06-13T23:40:53.856Z,3.07
2018-06-13T23:43:22.155Z,2.67
2018-06-13T23:45:50.425Z,3.40
2018-06-13T23:48:18.786Z,3.40
2018-06-13T23:50:47.086Z,3.40
2018-06-13T23:53:15.441Z,6.87
2018-06-13T23:55:43.746Z,13.80
2018-06-13T23:58:12.102Z,12.80
